createdAt,value
2019-02-21T00:01:02.780Z,12.53
2019-02-21T00:03:34.876Z,14.97
2019-02-21T00:06:06.766Z,14.60
2019-02-21T00:08:38.549Z,14.03
2019-02-21T00:11:10.391Z,15.33
2019-02-21T00:13:42.146Z,13.93
2019-02-21T00:16:13.900Z,13.43
2019-02-21T00:18:45.665Z,15.13
2019-02-21T00:21:17.434Z,14.93
2019-02-21T00:23:49.202Z,14.47
2019-02-21T00:26:21.028Z,13.72
2019-02-21T00:28:52.951Z,13.73
2019-02-21T00:31:24.783Z,14.87
2019-02-21T00:33:56.550Z,13.63
2019-02-21T00:36:28.450Z,13.27
2019-02-21T00:39:00.217Z,13.53
2019-02-21T00:41:32.316Z,12.43
2019-02-21T00:44:04.179Z,12.40
2019-02-21T00:46:36.009Z,12.70
2019-02-21T00:49:07.783Z,13.13
2019-02-21T00:51:39.817Z,14.97
2019-02-21T00:54:11.588Z,15.30
2019-02-21T00:56:43.751Z,15.47
2019-02-21T00:59:16.107Z,13.48
2019-02-21T01:01:48.106Z,13.73
2019-02-21T01:04:20.314Z,14.05
2019-02-21T01:06:52.186Z,13.77
2019-02-21T01:09:24.056Z,15.90
2019-02-21T01:11:55.946Z,15.03
2019-02-21T01:14:27.947Z,15.43
2019-02-21T01:17:00.375Z,17.57
2019-02-21T01:19:32.327Z,14.00
2019-02-21T01:22:04.539Z,18.23
2019-02-21T01:24:36.428Z,12.87
2019-02-21T01:27:08.385Z,14.83
2019-02-21T01:29:40.789Z,14.37
2019-02-21T01:32:12.576Z,14.73
2019-02-21T01:34:44.384Z,18.17
2019-02-21T01:37:16.167Z,16.40
2019-02-21T01:39:48.036Z,14.73
2019-02-21T01:42:19.984Z,13.90
2019-02-21T01:44:51.853Z,17.13
2019-02-21T01:47:23.719Z,16.57
2019-02-21T01:49:55.535Z,15.53
2019-02-21T01:52:27.312Z,16.32
2019-02-21T01:54:59.186Z,14.40
2019-02-21T01:57:31.036Z,15.87
2019-02-21T02:00:03.003Z,17.33
2019-02-21T02:02:35.234Z,17.43
2019-02-21T02:05:07.854Z,19.63
2019-02-21T02:07:40.129Z,15.38
2019-02-21T02:10:12.338Z,18.53
2019-02-21T02:12:44.520Z,21.20
2019-02-21T02:15:16.469Z,23.50
2019-02-21T02:17:48.255Z,25.53
2019-02-21T02:20:20.144Z,20.63
2019-02-21T02:22:52.079Z,20.70
2019-02-21T02:25:24.618Z,19.40
2019-02-21T02:27:56.439Z,18.50
2019-02-21T02:30:28.292Z,18.20
2019-02-21T02:33:00.044Z,19.50
2019-02-21T02:35:32.074Z,20.07
2019-02-21T02:38:04.168Z,21.97
2019-02-21T02:40:35.946Z,22.33
2019-02-21T02:43:07.868Z,26.60
2019-02-21T02:45:40.862Z,22.40
2019-02-21T02:48:12.624Z,22.83
2019-02-21T02:50:44.704Z,21.03
2019-02-21T02:53:16.492Z,18.70
2019-02-21T02:55:48.264Z,15.57
2019-02-21T02:58:20.139Z,15.10
2019-02-21T03:00:51.987Z,16.90
2019-02-21T03:03:23.897Z,21.00
2019-02-21T03:05:55.680Z,23.67
2019-02-21T03:08:27.604Z,21.60
2019-02-21T03:10:59.474Z,27.23
2019-02-21T03:13:31.305Z,20.20
2019-02-21T03:16:04.285Z,22.00
2019-02-21T03:18:36.297Z,20.20
2019-02-21T03:21:08.467Z,19.15
2019-02-21T03:23:40.219Z,19.33
2019-02-21T03:26:12.295Z,16.33
2019-02-21T03:28:44.054Z,14.23
2019-02-21T03:31:15.812Z,16.30
2019-02-21T03:33:47.591Z,14.10
2019-02-21T03:36:19.338Z,12.70
2019-02-21T03:38:51.299Z,13.57
2019-02-21T03:41:23.134Z,13.83
2019-02-21T03:43:54.983Z,12.70
2019-02-21T03:46:26.846Z,14.07
2019-02-21T03:48:58.596Z,14.70
2019-02-21T03:51:30.360Z,13.80
2019-02-21T03:54:02.275Z,15.00
2019-02-21T03:56:34.104Z,13.33
2019-02-21T03:59:06.000Z,16.03
2019-02-21T04:01:38.032Z,14.83
2019-02-21T04:04:10.177Z,21.17
2019-02-21T04:06:42.096Z,20.27
2019-02-21T04:09:14.177Z,18.13
2019-02-21T04:11:46.023Z,24.77
2019-02-21T04:14:20.820Z,22.37
2019-02-21T04:16:51.683Z,26.63
2019-02-21T04:19:23.531Z,22.33
2019-02-21T04:21:55.378Z,24.77
2019-02-21T04:24:27.145Z,28.15
2019-02-21T04:26:58.973Z,26.40
2019-02-21T04:29:33.437Z,21.47
2019-02-21T04:32:16.173Z,23.70
2019-02-21T04:34:38.851Z,25.45
2019-02-21T04:37:10.586Z,23.90
2019-02-21T04:39:42.706Z,17.23
2019-02-21T04:42:14.773Z,23.55
2019-02-21T04:44:46.598Z,20.90
2019-02-21T04:47:18.443Z,20.13
2019-02-21T04:49:50.622Z,21.40
2019-02-21T04:52:22.364Z,18.77
2019-02-21T04:54:54.112Z,16.07
2019-02-21T04:57:26.103Z,20.02
2019-02-21T04:59:57.923Z,18.57
2019-02-21T05:02:29.927Z,20.07
2019-02-21T05:05:01.685Z,20.30
2019-02-21T05:07:33.483Z,18.57
2019-02-21T05:10:05.542Z,18.17
2019-02-21T05:12:37.381Z,18.80
2019-02-21T05:15:13.791Z,20.52
2019-02-21T05:17:44.171Z,19.73
2019-02-21T05:20:16.985Z,16.63
2019-02-21T05:22:48.753Z,17.10
2019-02-21T05:25:20.513Z,16.70
2019-02-21T05:27:57.035Z,19.27
2019-02-21T05:30:29.128Z,17.67
2019-02-21T05:33:18.253Z,18.07
2019-02-21T05:35:56.955Z,20.33
2019-02-21T05:38:43.854Z,17.93
2019-02-21T05:41:33.177Z,16.80
2019-02-21T05:44:11.570Z,16.37
2019-02-21T05:47:05.256Z,20.27
2019-02-21T05:49:42.763Z,16.42
2019-02-21T05:52:19.633Z,17.70
2019-02-21T05:54:57.779Z,19.30
2019-02-21T05:57:41.170Z,18.37
2019-02-21T06:00:47.054Z,17.87
2019-02-21T06:03:35.718Z,21.10
2019-02-21T06:06:33.942Z,16.07
2019-02-21T06:09:38.386Z,18.53
2019-02-21T06:12:33.133Z,18.80
2019-02-21T06:15:08.292Z,17.55
2019-02-21T06:18:02.228Z,18.00
2019-02-21T06:20:57.654Z,17.37
2019-02-21T06:23:57.906Z,19.10
2019-02-21T06:26:40.940Z,20.73
2019-02-21T06:29:22.882Z,21.27
2019-02-21T06:31:54.691Z,21.90
2019-02-21T06:34:26.520Z,20.30
2019-02-21T06:36:58.883Z,21.13
2019-02-21T06:39:30.662Z,18.23
2019-02-21T06:42:02.553Z,20.87
2019-02-21T06:44:34.307Z,17.57
2019-02-21T06:47:06.222Z,19.50
2019-02-21T06:49:38.040Z,20.40
2019-02-21T06:52:10.121Z,23.03
2019-02-21T06:54:41.868Z,23.70
2019-02-21T06:57:13.618Z,21.20
2019-02-21T06:59:45.594Z,19.20
2019-02-21T07:02:17.385Z,21.35
2019-02-21T07:04:49.125Z,22.80
2019-02-21T07:07:20.869Z,21.33
2019-02-21T07:09:52.601Z,26.33
2019-02-21T07:12:24.420Z,21.93
2019-02-21T07:14:56.416Z,24.10
2019-02-21T07:17:28.150Z,25.70
2019-02-21T07:19:59.972Z,23.97
2019-02-21T07:22:31.702Z,25.60
2019-02-21T07:25:14.489Z,23.17
2019-02-21T07:27:46.284Z,23.03
2019-02-21T07:30:20.336Z,18.67
2019-02-21T07:32:52.743Z,17.80
2019-02-21T07:35:24.539Z,19.13
2019-02-21T07:37:57.243Z,21.33
2019-02-21T07:40:29.067Z,22.10
2019-02-21T07:43:01.770Z,21.73
2019-02-21T07:45:36.223Z,18.92
2019-02-21T07:48:07.219Z,22.93
2019-02-21T07:50:38.947Z,26.17
2019-02-21T07:53:11.923Z,24.77
2019-02-21T07:55:43.736Z,25.17
2019-02-21T07:58:15.704Z,28.62
2019-02-21T08:00:47.843Z,26.47
2019-02-21T08:03:29.750Z,32.45
2019-02-21T08:05:53.093Z,33.63
2019-02-21T08:08:25.897Z,33.77
2019-02-21T08:10:58.070Z,36.73
2019-02-21T08:13:29.993Z,37.40
2019-02-21T08:16:01.738Z,36.93
2019-02-21T08:18:33.501Z,35.77
2019-02-21T08:21:05.439Z,34.00
2019-02-21T08:23:37.448Z,30.70
2019-02-21T08:26:10.703Z,32.33
2019-02-21T08:28:42.591Z,34.13
2019-02-21T08:31:14.337Z,33.15
2019-02-21T08:33:58.473Z,32.57
2019-02-21T08:36:28.291Z,34.73
2019-02-21T08:39:00.027Z,33.17
2019-02-21T08:41:31.770Z,33.92
2019-02-21T08:44:03.514Z,34.93
2019-02-21T08:46:35.254Z,30.50
2019-02-21T08:49:07.146Z,31.62
2019-02-21T08:51:38.963Z,32.35
2019-02-21T08:54:11.506Z,35.03
2019-02-21T08:56:43.398Z,33.67
2019-02-21T08:59:15.480Z,32.75
2019-02-21T09:01:47.329Z,31.80
2019-02-21T09:04:27.319Z,31.53
2019-02-21T09:06:53.128Z,31.10
2019-02-21T09:09:25.010Z,31.52
2019-02-21T09:11:57.331Z,35.23
2019-02-21T09:14:29.293Z,28.53
2019-02-21T09:17:01.040Z,34.20
2019-02-21T09:19:32.782Z,33.43
2019-02-21T09:22:04.521Z,30.20
2019-02-21T09:24:40.138Z,33.73
2019-02-21T09:27:10.248Z,34.57
2019-02-21T09:29:41.949Z,32.27
2019-02-21T09:32:13.938Z,31.07
2019-02-21T09:34:45.759Z,31.87
2019-02-21T09:37:17.574Z,32.17
2019-02-21T09:39:52.670Z,32.50
2019-02-21T09:42:24.633Z,32.65
2019-02-21T09:44:57.377Z,34.43
2019-02-21T09:47:30.923Z,29.20
2019-02-21T09:50:02.842Z,30.63
2019-02-21T09:52:34.803Z,29.93
2019-02-21T09:55:10.618Z,33.15
2019-02-21T09:57:42.550Z,28.98
2019-02-21T10:00:17.563Z,30.23
2019-02-21T10:02:49.515Z,29.43
2019-02-21T10:05:21.336Z,29.80
2019-02-21T10:07:53.165Z,32.20
2019-02-21T10:10:25.018Z,32.20
2019-02-21T10:12:56.911Z,29.87
2019-02-21T10:15:31.281Z,31.65
2019-02-21T10:18:02.122Z,32.97
2019-02-21T10:20:33.902Z,33.30
2019-02-21T10:23:05.742Z,33.60
2019-02-21T10:25:37.690Z,33.03
2019-02-21T10:28:09.765Z,27.23
2019-02-21T10:30:41.575Z,32.87
2019-02-21T10:33:13.313Z,30.57
2019-02-21T10:35:45.118Z,33.80
2019-02-21T10:38:17.295Z,33.60
2019-02-21T10:40:49.095Z,25.13
2019-02-21T10:43:20.908Z,34.00
2019-02-21T10:45:52.720Z,31.60
2019-02-21T10:48:24.461Z,27.10
2019-02-21T10:50:56.265Z,33.57
2019-02-21T10:53:28.013Z,23.87
2019-02-21T10:55:59.733Z,18.37
2019-02-21T10:58:31.566Z,20.67
2019-02-21T11:01:03.447Z,25.63
2019-02-21T11:03:35.762Z,21.07
2019-02-21T11:06:07.659Z,26.90
2019-02-21T11:08:39.399Z,28.80
2019-02-21T11:11:11.312Z,26.57
2019-02-21T11:13:44.191Z,17.83
2019-02-21T11:16:16.255Z,32.30
2019-02-21T11:18:48.109Z,26.37
2019-02-21T11:21:19.974Z,31.60
2019-02-21T11:23:53.397Z,29.63
2019-02-21T11:26:25.160Z,26.02
2019-02-21T11:28:56.972Z,26.60
2019-02-21T11:31:28.802Z,30.97
2019-02-21T11:34:00.540Z,28.23
2019-02-21T11:36:32.271Z,27.77
2019-02-21T11:39:05.100Z,26.50
2019-02-21T11:41:36.997Z,30.90
2019-02-21T11:44:09.740Z,36.58
2019-02-21T11:46:41.552Z,40.90
2019-02-21T11:49:13.431Z,26.67
2019-02-21T11:51:45.256Z,32.83
2019-02-21T11:54:26.520Z,32.65
2019-02-21T11:56:50.538Z,30.02
2019-02-21T11:59:22.285Z,32.05
2019-02-21T12:01:54.099Z,34.33
2019-02-21T12:04:26.346Z,33.83
2019-02-21T12:06:58.137Z,34.90
2019-02-21T12:09:29.894Z,35.30
2019-02-21T12:12:01.703Z,31.30
2019-02-21T12:14:33.444Z,31.53
2019-02-21T12:17:05.432Z,29.33
2019-02-21T12:19:37.174Z,38.30
2019-02-21T12:22:10.226Z,30.63
2019-02-21T12:24:41.978Z,33.37
2019-02-21T12:27:13.869Z,30.08
2019-02-21T12:29:45.611Z,31.40
2019-02-21T12:32:17.354Z,31.23
2019-02-21T12:34:49.101Z,18.20
2019-02-21T12:37:20.846Z,33.38
2019-02-21T12:39:52.673Z,29.33
2019-02-21T12:42:24.482Z,45.52
2019-02-21T12:44:56.401Z,28.17
2019-02-21T12:47:28.135Z,27.87
2019-02-21T12:50:00.323Z,25.60
2019-02-21T12:52:32.132Z,30.97
2019-02-21T12:55:04.320Z,31.03
2019-02-21T12:57:36.306Z,29.70
2019-02-21T13:00:12.702Z,29.60
2019-02-21T13:02:44.509Z,32.10
2019-02-21T13:05:16.422Z,36.33
2019-02-21T13:07:48.274Z,29.67
2019-02-21T13:10:20.439Z,32.33
2019-02-21T13:12:52.164Z,34.23
2019-02-21T13:15:24.256Z,30.43
2019-02-21T13:17:56.313Z,22.80
2019-02-21T13:20:28.135Z,29.67
2019-02-21T13:23:00.146Z,23.00
2019-02-21T13:25:32.295Z,22.57
2019-02-21T13:28:04.012Z,25.90
2019-02-21T13:30:35.865Z,28.47
2019-02-21T13:33:07.674Z,25.13
2019-02-21T13:35:39.421Z,30.67
2019-02-21T13:38:11.230Z,28.77
2019-02-21T13:40:43.114Z,20.53
2019-02-21T13:43:14.847Z,31.82
2019-02-21T13:45:46.589Z,34.40
2019-02-21T13:48:18.396Z,28.47
2019-02-21T13:50:50.141Z,33.50
2019-02-21T13:53:21.877Z,29.40
2019-02-21T13:55:54.269Z,31.17
2019-02-21T13:58:26.206Z,29.95
2019-02-21T14:00:58.352Z,26.40
2019-02-21T14:03:30.182Z,27.00
2019-02-21T14:06:03.792Z,21.40
2019-02-21T14:08:36.297Z,32.70
2019-02-21T14:11:08.719Z,30.05
2019-02-21T14:13:40.428Z,26.70
2019-02-21T14:16:12.199Z,31.00
2019-02-21T14:18:43.942Z,31.30
2019-02-21T14:21:15.844Z,28.90
2019-02-21T14:23:47.798Z,26.53
2019-02-21T14:26:19.551Z,30.33
2019-02-21T14:28:51.288Z,31.67
2019-02-21T14:31:23.031Z,24.93
2019-02-21T14:33:54.847Z,28.30
2019-02-21T14:36:26.599Z,24.00
2019-02-21T14:38:58.846Z,30.37
2019-02-21T14:41:30.599Z,28.17
2019-02-21T14:44:02.334Z,29.23
2019-02-21T14:46:34.155Z,28.97
2019-02-21T14:49:05.980Z,27.40
2019-02-21T14:51:37.808Z,23.90
2019-02-21T14:54:09.964Z,27.07
2019-02-21T14:56:41.779Z,27.60
2019-02-21T14:59:14.278Z,29.37
2019-02-21T15:01:46.091Z,29.00
2019-02-21T15:04:17.818Z,25.97
2019-02-21T15:06:49.571Z,27.27
2019-02-21T15:09:21.301Z,40.85
2019-02-21T15:11:53.213Z,27.80
2019-02-21T15:14:24.968Z,27.30
2019-02-21T15:16:56.787Z,24.90
2019-02-21T15:19:29.791Z,22.97
2019-02-21T15:22:01.661Z,26.47
2019-02-21T15:24:33.494Z,28.93
2019-02-21T15:27:08.662Z,29.80
2019-02-21T15:29:41.611Z,24.70
2019-02-21T15:32:14.395Z,24.47
2019-02-21T15:34:47.249Z,27.90
2019-02-21T15:37:19.082Z,22.40
2019-02-21T15:39:50.814Z,19.55
2019-02-21T15:42:22.728Z,31.55
2019-02-21T15:44:54.507Z,25.77
2019-02-21T15:47:26.613Z,24.07
2019-02-21T15:49:58.352Z,25.57
2019-02-21T15:52:30.102Z,24.10
2019-02-21T15:55:11.857Z,69.87
2019-02-21T15:57:35.292Z,31.87
2019-02-21T16:00:09.202Z,27.43
2019-02-21T16:02:41.095Z,26.77
2019-02-21T16:05:13.066Z,22.57
2019-02-21T16:07:44.894Z,25.83
2019-02-21T16:10:19.782Z,24.37
2019-02-21T16:12:51.932Z,25.23
2019-02-21T16:15:23.980Z,25.25
2019-02-21T16:17:55.769Z,26.80
2019-02-21T16:20:27.576Z,27.80
2019-02-21T16:22:59.408Z,25.23
2019-02-21T16:25:31.293Z,25.23
2019-02-21T16:28:03.075Z,28.40
2019-02-21T16:30:35.045Z,29.13
2019-02-21T16:33:09.336Z,28.73
2019-02-21T16:35:46.134Z,24.77
2019-02-21T16:38:18.019Z,29.55
2019-02-21T16:40:50.712Z,23.73
2019-02-21T16:43:22.754Z,32.33
2019-02-21T16:45:54.552Z,27.27
2019-02-21T16:48:26.331Z,24.60
2019-02-21T16:50:58.135Z,29.67
2019-02-21T16:53:29.897Z,29.77
2019-02-21T16:56:01.633Z,29.03
2019-02-21T16:58:33.547Z,31.37
2019-02-21T17:01:05.408Z,31.43
2019-02-21T17:03:37.161Z,35.17
2019-02-21T17:06:10.083Z,38.17
2019-02-21T17:08:42.023Z,31.93
2019-02-21T17:11:13.925Z,29.23
2019-02-21T17:13:45.739Z,23.50
2019-02-21T17:16:17.745Z,26.73
2019-02-21T17:18:49.488Z,32.73
2019-02-21T17:21:21.568Z,25.08
2019-02-21T17:23:53.386Z,22.10
2019-02-21T17:26:25.150Z,24.47
2019-02-21T17:28:57.775Z,25.33
2019-02-21T17:31:29.502Z,24.57
2019-02-21T17:34:01.357Z,28.17
2019-02-21T17:36:33.227Z,26.23
2019-02-21T17:39:05.354Z,23.93
2019-02-21T17:41:38.029Z,25.57
2019-02-21T17:44:10.059Z,27.33
2019-02-21T17:46:42.111Z,26.53
2019-02-21T17:49:15.653Z,29.67
2019-02-21T17:51:47.526Z,27.20
2019-02-21T17:54:19.333Z,27.98
2019-02-21T17:56:51.085Z,25.03
2019-02-21T17:59:22.827Z,23.73
2019-02-21T18:01:54.901Z,30.30
2019-02-21T18:04:26.648Z,35.70
2019-02-21T18:06:58.517Z,24.13
2019-02-21T18:09:30.333Z,26.17
2019-02-21T18:12:02.153Z,23.10
2019-02-21T18:14:33.897Z,24.33
2019-02-21T18:17:05.711Z,24.20
2019-02-21T18:19:37.727Z,22.77
2019-02-21T18:22:09.491Z,26.13
2019-02-21T18:24:41.520Z,25.60
2019-02-21T18:27:13.402Z,25.60
2019-02-21T18:29:45.397Z,23.83
2019-02-21T18:32:17.280Z,24.25
2019-02-21T18:34:49.600Z,25.87
2019-02-21T18:37:21.700Z,26.63
2019-02-21T18:39:53.439Z,28.27
2019-02-21T18:42:25.177Z,22.98
2019-02-21T18:44:56.957Z,26.43
2019-02-21T18:47:28.678Z,27.87
2019-02-21T18:50:00.668Z,26.00
2019-02-21T18:52:32.644Z,25.10
2019-02-21T18:55:04.509Z,28.97
2019-02-21T18:57:36.375Z,22.77
2019-02-21T19:00:11.027Z,26.17
2019-02-21T19:02:44.347Z,23.80
2019-02-21T19:05:16.241Z,25.17
2019-02-21T19:07:59.618Z,23.30
2019-02-21T19:10:22.882Z,26.95
2019-02-21T19:12:54.678Z,26.77
2019-02-21T19:15:27.622Z,24.03
2019-02-21T19:17:59.498Z,27.97
2019-02-21T19:20:31.513Z,22.13
2019-02-21T19:23:03.829Z,27.70
2019-02-21T19:25:37.510Z,24.63
2019-02-21T19:28:09.483Z,23.00
2019-02-21T19:30:46.782Z,25.73
2019-02-21T19:33:18.591Z,26.20
2019-02-21T19:35:50.667Z,29.97
2019-02-21T19:38:22.472Z,30.25
2019-02-21T19:40:54.613Z,29.43
2019-02-21T19:43:26.499Z,29.80
2019-02-21T19:45:58.385Z,30.10
2019-02-21T19:48:30.259Z,25.53
2019-02-21T19:51:02.145Z,28.63
2019-02-21T19:53:33.874Z,29.13
2019-02-21T19:56:05.773Z,26.30
2019-02-21T19:58:37.655Z,24.20
2019-02-21T20:01:10.105Z,31.13
2019-02-21T20:03:41.841Z,29.87
2019-02-21T20:06:13.762Z,30.33
2019-02-21T20:08:45.562Z,33.20
2019-02-21T20:11:17.407Z,32.13
2019-02-21T20:13:49.222Z,31.43
2019-02-21T20:16:21.122Z,27.30
2019-02-21T20:18:53.000Z,25.50
2019-02-21T20:21:24.740Z,24.50
2019-02-21T20:23:56.570Z,24.30
2019-02-21T20:26:28.751Z,23.67
2019-02-21T20:29:00.487Z,24.00
2019-02-21T20:31:32.312Z,29.13
2019-02-21T20:34:04.743Z,27.70
2019-02-21T20:36:36.808Z,27.90
2019-02-21T20:39:09.296Z,27.95
2019-02-21T20:41:41.471Z,26.53
2019-02-21T20:44:13.259Z,29.20
2019-02-21T20:46:45.437Z,29.53
2019-02-21T20:49:17.505Z,30.52
2019-02-21T20:51:49.251Z,27.93
2019-02-21T20:54:21.070Z,28.27
2019-02-21T20:56:53.057Z,28.23
2019-02-21T20:59:24.878Z,29.98
2019-02-21T21:01:56.625Z,29.47
2019-02-21T21:04:28.505Z,31.20
2019-02-21T21:07:00.349Z,36.80
2019-02-21T21:09:32.578Z,38.00
2019-02-21T21:12:04.713Z,35.43
2019-02-21T21:14:36.609Z,36.50
2019-02-21T21:17:09.350Z,38.05
2019-02-21T21:19:41.159Z,39.73
2019-02-21T21:22:12.977Z,29.90
2019-02-21T21:24:44.821Z,31.17
2019-02-21T21:27:16.575Z,33.73
2019-02-21T21:29:48.314Z,29.03
2019-02-21T21:32:20.061Z,32.60
2019-02-21T21:34:51.868Z,30.87
2019-02-21T21:37:23.760Z,36.00
2019-02-21T21:39:55.492Z,27.67
2019-02-21T21:42:27.337Z,31.80
2019-02-21T21:44:59.127Z,33.97
2019-02-21T21:47:30.927Z,27.60
2019-02-21T21:50:02.669Z,36.60
2019-02-21T21:52:34.558Z,33.87
2019-02-21T21:55:07.547Z,31.90
2019-02-21T21:57:39.695Z,31.90
2019-02-21T22:00:19.125Z,36.67
2019-02-21T22:02:51.126Z,33.33
2019-02-21T22:05:23.014Z,60.43
2019-02-21T22:07:54.835Z,41.80
2019-02-21T22:10:26.577Z,40.67
2019-02-21T22:12:58.398Z,37.00
2019-02-21T22:15:30.136Z,33.57
2019-02-21T22:18:01.948Z,29.27
2019-02-21T22:20:33.842Z,39.73
2019-02-21T22:23:05.759Z,31.57
2019-02-21T22:25:37.575Z,33.70
2019-02-21T22:28:09.397Z,36.83
2019-02-21T22:30:41.519Z,34.77
2019-02-21T22:33:13.333Z,30.27
2019-02-21T22:35:45.056Z,31.73
2019-02-21T22:38:24.154Z,28.97
2019-02-21T22:40:55.880Z,29.83
2019-02-21T22:43:27.693Z,29.10
2019-02-21T22:45:59.420Z,30.97
2019-02-21T22:48:31.157Z,28.83
2019-02-21T22:51:02.976Z,31.03
2019-02-21T22:53:34.733Z,29.80
2019-02-21T22:56:06.551Z,32.53
2019-02-21T22:58:45.126Z,32.73
2019-02-21T23:01:29.602Z,36.33
2019-02-21T23:04:36.443Z,34.93
2019-02-21T23:07:56.703Z,37.43
2019-02-21T23:10:28.777Z,35.30
2019-02-21T23:13:00.596Z,35.68
2019-02-21T23:15:32.417Z,40.07
2019-02-21T23:18:04.158Z,33.90
2019-02-21T23:20:35.983Z,34.73
2019-02-21T23:23:10.754Z,31.70
2019-02-21T23:25:42.680Z,37.87
2019-02-21T23:28:14.493Z,34.33
2019-02-21T23:30:46.255Z,37.47
2019-02-21T23:33:18.148Z,35.48
2019-02-21T23:35:49.897Z,33.67
2019-02-21T23:38:22.186Z,31.52
2019-02-21T23:40:53.943Z,30.67
2019-02-21T23:43:25.824Z,33.50
2019-02-21T23:45:57.821Z,35.33
2019-02-21T23:48:29.561Z,33.33
2019-02-21T23:51:01.313Z,33.87
2019-02-21T23:53:33.135Z,34.17
2019-02-21T23:56:04.886Z,33.97
2019-02-21T23:58:36.880Z,32.90
